DARAJ35 FKKV-FZAA
Flight info
| Callsign | DARAJ35 |
|---|---|
| Flight time | 1h 53m |
| Altitude | FL390 |
| Route | SEXAT UR986 FRV UA604 KIKSA |
| Aircraft | E35L/M-SDFGIRWXY/SB1 |
Departure
| Time | 2026-04-28 20:15 |
|---|---|
| Airport | Bamenda Airport (FKKV) |
Arrival
| Time | 2026-04-28 22:09 |
|---|---|
| Airport | Ndjili International Airport (FZAA) |
| Time | Latitude | Longitude | Altitude | Speed | Heading |
|---|---|---|---|---|---|
| 2026-04-28 19:52 | 6.03593 | 10.12108 | 4110 ft | 0 kts | 263° |
| 2026-04-28 20:12 | 6.03599 | 10.12099 | 4111 ft | 10 kts | 325° |
| 2026-04-28 20:13 | 6.03695 | 10.12171 | 4106 ft | 18 kts | 71° |
| 2026-04-28 20:13 | 6.03713 | 10.12242 | 4103 ft | 13 kts | 83° |
| 2026-04-28 20:13 | 6.03586 | 10.12316 | 4105 ft | 33 kts | 172° |
| 2026-04-28 20:13 | 6.03315 | 10.12360 | 4114 ft | 39 kts | 169° |
| 2026-04-28 20:14 | 6.03064 | 10.12406 | 4120 ft | 22 kts | 165° |
| 2026-04-28 20:14 | 6.03068 | 10.12391 | 4120 ft | 7 kts | 354° |
| 2026-04-28 20:14 | 6.03083 | 10.12390 | 4119 ft | 4 kts | 354° |
| 2026-04-28 20:14 | 6.03136 | 10.12384 | 4117 ft | 10 kts | 354° |
| 2026-04-28 20:15 | 6.03229 | 10.12373 | 4115 ft | 17 kts | 351° |
| 2026-04-28 20:15 | 6.03603 | 10.12313 | 4105 ft | 100 kts | 351° |
| 2026-04-28 20:15 | 6.04602 | 10.12159 | 4164 ft | 167 kts | 353° |
| 2026-04-28 20:15 | 6.05805 | 10.11954 | 5028 ft | 172 kts | 351° |
| 2026-04-28 20:16 | 6.07254 | 10.11687 | 5305 ft | 221 kts | 354° |
| 2026-04-28 20:16 | 6.09048 | 10.11945 | 5322 ft | 264 kts | 23° |
| 2026-04-28 20:16 | 6.10535 | 10.13300 | 5735 ft | 278 kts | 58° |
| 2026-04-28 20:16 | 6.10948 | 10.15269 | 6836 ft | 262 kts | 90° |
| 2026-04-28 20:17 | 6.10254 | 10.17137 | 7279 ft | 282 kts | 124° |
| 2026-04-28 20:17 | 6.08529 | 10.18395 | 8394 ft | 293 kts | 152° |
| 2026-04-28 20:17 | 6.06613 | 10.19300 | 9895 ft | 284 kts | 150° |
| 2026-04-28 20:17 | 6.04772 | 10.20179 | 11039 ft | 286 kts | 150° |
| 2026-04-28 20:18 | 6.02980 | 10.21034 | 12076 ft | 289 kts | 150° |
| 2026-04-28 20:18 | 6.01708 | 10.21646 | 12767 ft | 292 kts | 147° |
| 2026-04-28 20:18 | 5.99563 | 10.23708 | 13448 ft | 312 kts | 121° |
| 2026-04-28 20:18 | 5.98184 | 10.25691 | 14338 ft | 322 kts | 121° |
| 2026-04-28 20:19 | 5.96795 | 10.27722 | 15211 ft | 331 kts | 121° |
| 2026-04-28 20:19 | 5.95449 | 10.29692 | 16036 ft | 338 kts | 121° |
| 2026-04-28 20:19 | 5.94016 | 10.31790 | 16905 ft | 344 kts | 121° |
| 2026-04-28 20:19 | 5.92561 | 10.33920 | 17723 ft | 351 kts | 121° |
| 2026-04-28 20:20 | 5.91107 | 10.36048 | 18587 ft | 354 kts | 121° |
| 2026-04-28 20:20 | 5.89673 | 10.38147 | 19424 ft | 357 kts | 121° |
| 2026-04-28 20:20 | 5.88241 | 10.40244 | 20167 ft | 362 kts | 121° |
| 2026-04-28 20:20 | 5.86785 | 10.42375 | 20900 ft | 366 kts | 121° |
| 2026-04-28 20:21 | 5.85280 | 10.44576 | 21636 ft | 370 kts | 121° |
| 2026-04-28 20:21 | 5.83763 | 10.46795 | 22363 ft | 374 kts | 121° |
| 2026-04-28 20:21 | 5.82173 | 10.49122 | 23094 ft | 378 kts | 121° |
| 2026-04-28 20:21 | 5.80591 | 10.51436 | 23740 ft | 384 kts | 121° |
| 2026-04-28 20:22 | 5.79004 | 10.53755 | 24457 ft | 388 kts | 121° |
| 2026-04-28 20:22 | 5.77377 | 10.56131 | 25157 ft | 392 kts | 121° |
| 2026-04-28 20:22 | 5.75764 | 10.58489 | 25887 ft | 393 kts | 122° |
| 2026-04-28 20:22 | 5.74113 | 10.60903 | 26746 ft | 392 kts | 122° |
| 2026-04-28 20:23 | 5.72528 | 10.63219 | 27585 ft | 390 kts | 122° |
| 2026-04-28 20:23 | 5.70914 | 10.65578 | 28402 ft | 389 kts | 123° |
| 2026-04-28 20:23 | 5.69275 | 10.67974 | 29272 ft | 387 kts | 123° |
| 2026-04-28 20:23 | 5.67653 | 10.70345 | 30191 ft | 384 kts | 123° |
| 2026-04-28 20:24 | 5.66053 | 10.72626 | 31030 ft | 382 kts | 127° |
| 2026-04-28 20:24 | 5.64104 | 10.74671 | 31864 ft | 382 kts | 138° |
| 2026-04-28 20:24 | 5.61812 | 10.76305 | 32691 ft | 382 kts | 148° |
| 2026-04-28 20:24 | 5.59187 | 10.77501 | 33595 ft | 382 kts | 157° |
| 2026-04-28 20:25 | 5.56579 | 10.78526 | 34463 ft | 380 kts | 155° |
| 2026-04-28 20:25 | 5.53902 | 10.79630 | 35365 ft | 377 kts | 155° |
| 2026-04-28 20:25 | 5.51283 | 10.80724 | 36216 ft | 375 kts | 155° |
| 2026-04-28 20:25 | 5.48701 | 10.81808 | 36993 ft | 374 kts | 155° |
| 2026-04-28 20:26 | 5.46113 | 10.82896 | 37736 ft | 374 kts | 155° |
| 2026-04-28 20:26 | 5.43508 | 10.83990 | 38425 ft | 374 kts | 155° |
| 2026-04-28 20:26 | 5.40933 | 10.85073 | 39091 ft | 375 kts | 155° |
| 2026-04-28 20:26 | 5.38351 | 10.86159 | 39090 ft | 391 kts | 155° |
| 2026-04-28 20:27 | 5.35624 | 10.87306 | 39102 ft | 406 kts | 155° |
| 2026-04-28 20:27 | 5.32854 | 10.88470 | 39098 ft | 420 kts | 155° |
| 2026-04-28 20:27 | 5.29934 | 10.89697 | 39090 ft | 435 kts | 155° |
| 2026-04-28 20:27 | 5.26972 | 10.90942 | 39088 ft | 449 kts | 155° |
| 2026-04-28 20:28 | 5.23786 | 10.92280 | 39085 ft | 462 kts | 155° |
| 2026-04-28 20:28 | 5.17505 | 10.94917 | 39066 ft | 453 kts | 155° |
| 2026-04-28 20:29 | 5.11379 | 10.97491 | 39055 ft | 438 kts | 155° |
| 2026-04-28 20:29 | 5.05408 | 10.99998 | 39049 ft | 425 kts | 155° |
| 2026-04-28 20:30 | 4.99569 | 11.02449 | 39043 ft | 414 kts | 155° |
| 2026-04-28 20:30 | 4.93940 | 11.04812 | 39039 ft | 404 kts | 155° |
| 2026-04-28 20:31 | 4.88437 | 11.07121 | 39021 ft | 395 kts | 155° |
| 2026-04-28 20:31 | 4.83107 | 11.09358 | 39009 ft | 387 kts | 155° |
| 2026-04-28 20:32 | 4.77726 | 11.11615 | 39002 ft | 379 kts | 155° |
| 2026-04-28 20:32 | 4.72548 | 11.13786 | 38994 ft | 372 kts | 155° |
| 2026-04-28 20:33 | 4.67368 | 11.15958 | 38988 ft | 365 kts | 155° |
| 2026-04-28 20:33 | 4.62383 | 11.18047 | 38990 ft | 359 kts | 155° |
| 2026-04-28 20:34 | 4.57399 | 11.20136 | 38997 ft | 352 kts | 155° |
| 2026-04-28 20:34 | 4.52575 | 11.22158 | 38998 ft | 346 kts | 154° |
| 2026-04-28 20:35 | 4.47851 | 11.24137 | 38991 ft | 340 kts | 154° |
| 2026-04-28 20:35 | 4.43154 | 11.26105 | 38993 ft | 335 kts | 154° |
| 2026-04-28 20:36 | 4.38563 | 11.28028 | 38995 ft | 329 kts | 155° |
| 2026-04-28 20:36 | 4.34012 | 11.29934 | 38989 ft | 323 kts | 154° |
| 2026-04-28 20:37 | 4.29619 | 11.31774 | 38987 ft | 317 kts | 154° |
| 2026-04-28 20:37 | 4.25186 | 11.33630 | 38993 ft | 311 kts | 154° |
| 2026-04-28 20:38 | 4.20974 | 11.35394 | 38991 ft | 305 kts | 154° |
| 2026-04-28 20:38 | 4.16802 | 11.37140 | 38998 ft | 298 kts | 154° |
| 2026-04-28 20:38 | 4.14784 | 11.37985 | 38995 ft | 295 kts | 154° |
| 2026-04-28 20:39 | 4.12786 | 11.38821 | 39003 ft | 291 kts | 154° |
| 2026-04-28 20:39 | 4.10800 | 11.39652 | 39002 ft | 288 kts | 154° |
| 2026-04-28 20:39 | 4.08830 | 11.40476 | 39005 ft | 284 kts | 154° |
| 2026-04-28 20:39 | 4.06977 | 11.41252 | 39011 ft | 280 kts | 154° |
| 2026-04-28 20:40 | 4.05134 | 11.42023 | 39014 ft | 276 kts | 154° |
| 2026-04-28 20:40 | 4.03308 | 11.42787 | 39016 ft | 272 kts | 154° |
| 2026-04-28 20:40 | 4.01537 | 11.43528 | 39022 ft | 267 kts | 154° |
| 2026-04-28 20:40 | 3.99815 | 11.44249 | 39027 ft | 262 kts | 153° |
| 2026-04-28 20:41 | 3.98111 | 11.44962 | 39026 ft | 257 kts | 153° |
| 2026-04-28 20:41 | 3.96447 | 11.45658 | 39016 ft | 252 kts | 153° |
| 2026-04-28 20:41 | 3.94822 | 11.46337 | 38992 ft | 247 kts | 153° |
| 2026-04-28 20:41 | 3.93240 | 11.46999 | 38967 ft | 241 kts | 153° |
| 2026-04-28 20:42 | 3.91652 | 11.47663 | 38935 ft | 234 kts | 153° |
| 2026-04-28 20:42 | 3.90110 | 11.48308 | 38907 ft | 226 kts | 153° |
| 2026-04-28 20:42 | 3.88663 | 11.48914 | 38744 ft | 225 kts | 152° |
| 2026-04-28 20:42 | 3.87079 | 11.49706 | 37337 ft | 270 kts | 143° |
| 2026-04-28 20:43 | 3.85611 | 11.51035 | 37076 ft | 267 kts | 118° |
| 2026-04-28 20:43 | 3.85078 | 11.52722 | 37822 ft | 238 kts | 85° |
| 2026-04-28 20:43 | 3.85659 | 11.54373 | 37586 ft | 256 kts | 47° |
| 2026-04-28 20:43 | 3.87511 | 11.55132 | 36039 ft | 325 kts | 349° |
| 2026-04-28 20:44 | 3.89607 | 11.53976 | 36345 ft | 322 kts | 333° |
| 2026-04-28 20:44 | 3.91639 | 11.53620 | 37343 ft | 281 kts | 29° |
| 2026-04-28 20:44 | 3.92947 | 11.55162 | 36349 ft | 301 kts | 89° |
| 2026-04-28 20:44 | 3.92142 | 11.57105 | 36802 ft | 292 kts | 144° |
| 2026-04-28 20:45 | 3.90252 | 11.57581 | 38273 ft | 261 kts | 190° |
| 2026-04-28 20:45 | 3.88488 | 11.57064 | 38553 ft | 262 kts | 194° |
| 2026-04-28 20:45 | 3.86731 | 11.56663 | 38755 ft | 255 kts | 182° |
| 2026-04-28 20:45 | 3.84922 | 11.56436 | 38688 ft | 265 kts | 183° |
| 2026-04-28 20:46 | 3.83049 | 11.56197 | 38723 ft | 273 kts | 184° |
| 2026-04-28 20:46 | 3.81117 | 11.55950 | 38761 ft | 284 kts | 183° |
| 2026-04-28 20:46 | 3.79090 | 11.55691 | 38793 ft | 296 kts | 184° |
| 2026-04-28 20:46 | 3.76947 | 11.55418 | 38695 ft | 312 kts | 183° |
| 2026-04-28 20:47 | 3.74583 | 11.55375 | 38633 ft | 317 kts | 169° |
| 2026-04-28 20:47 | 3.72321 | 11.55891 | 39002 ft | 313 kts | 159° |
| 2026-04-28 20:47 | 3.70128 | 11.56577 | 38994 ft | 322 kts | 159° |
| 2026-04-28 20:48 | 3.65397 | 11.58181 | 39006 ft | 340 kts | 158° |
| 2026-04-28 20:48 | 3.60549 | 11.59879 | 38997 ft | 357 kts | 158° |
| 2026-04-28 20:49 | 3.55370 | 11.61700 | 38991 ft | 373 kts | 158° |
| 2026-04-28 20:49 | 3.50061 | 11.63568 | 38981 ft | 386 kts | 158° |
| 2026-04-28 20:50 | 3.44543 | 11.65511 | 38953 ft | 406 kts | 158° |
| 2026-04-28 20:50 | 3.41681 | 11.66518 | 38990 ft | 421 kts | 158° |
| 2026-04-28 20:50 | 3.38716 | 11.67560 | 39003 ft | 428 kts | 158° |
| 2026-04-28 20:51 | 3.32671 | 11.69686 | 39008 ft | 434 kts | 158° |
| 2026-04-28 20:51 | 3.26640 | 11.71808 | 39025 ft | 438 kts | 158° |
| 2026-04-28 20:52 | 3.20495 | 11.73969 | 39041 ft | 441 kts | 158° |
| 2026-04-28 20:52 | 3.14285 | 11.76153 | 39055 ft | 444 kts | 158° |
| 2026-04-28 20:53 | 3.04977 | 11.79425 | 39060 ft | 449 kts | 158° |
| 2026-04-28 20:53 | 2.98796 | 11.81598 | 39055 ft | 452 kts | 158° |
| 2026-04-28 20:54 | 2.92534 | 11.83799 | 39035 ft | 454 kts | 158° |
| 2026-04-28 20:54 | 2.86213 | 11.86021 | 39025 ft | 455 kts | 159° |
| 2026-04-28 20:55 | 2.79978 | 11.88212 | 39014 ft | 455 kts | 158° |
| 2026-04-28 20:55 | 2.73629 | 11.90442 | 39010 ft | 455 kts | 158° |
| 2026-04-28 20:56 | 2.67334 | 11.92654 | 39011 ft | 455 kts | 158° |
| 2026-04-28 20:56 | 2.60967 | 11.94891 | 39012 ft | 455 kts | 158° |
| 2026-04-28 20:57 | 2.54649 | 11.97110 | 39010 ft | 454 kts | 158° |
| 2026-04-28 20:57 | 2.48315 | 11.99333 | 39018 ft | 453 kts | 158° |
| 2026-04-28 20:58 | 2.42032 | 12.01539 | 39016 ft | 453 kts | 158° |
| 2026-04-28 20:58 | 2.35720 | 12.03754 | 39015 ft | 452 kts | 158° |
| 2026-04-28 20:59 | 2.29374 | 12.05982 | 39011 ft | 452 kts | 158° |
| 2026-04-28 20:59 | 2.23123 | 12.08176 | 39006 ft | 451 kts | 159° |
| 2026-04-28 21:00 | 2.16773 | 12.10404 | 39006 ft | 451 kts | 158° |
| 2026-04-28 21:00 | 2.10551 | 12.12587 | 39006 ft | 451 kts | 158° |
| 2026-04-28 21:01 | 2.04175 | 12.14825 | 39015 ft | 450 kts | 158° |
| 2026-04-28 21:01 | 1.98084 | 12.16961 | 39019 ft | 450 kts | 158° |
| 2026-04-28 21:02 | 1.92017 | 12.19090 | 39021 ft | 450 kts | 158° |
| 2026-04-28 21:02 | 1.86023 | 12.21193 | 39025 ft | 450 kts | 158° |
| 2026-04-28 21:03 | 1.79969 | 12.23316 | 39025 ft | 449 kts | 158° |
| 2026-04-28 21:03 | 1.73962 | 12.25423 | 39026 ft | 449 kts | 158° |
| 2026-04-28 21:04 | 1.67915 | 12.27543 | 39021 ft | 449 kts | 159° |
| 2026-04-28 21:04 | 1.61893 | 12.29655 | 39016 ft | 449 kts | 158° |
| 2026-04-28 21:05 | 1.55887 | 12.31762 | 39014 ft | 448 kts | 158° |
| 2026-04-28 21:05 | 1.49878 | 12.33869 | 39010 ft | 448 kts | 158° |
| 2026-04-28 21:06 | 1.43846 | 12.35985 | 39009 ft | 448 kts | 158° |
| 2026-04-28 21:06 | 1.37844 | 12.38090 | 39008 ft | 448 kts | 158° |
| 2026-04-28 21:07 | 1.31825 | 12.40201 | 39008 ft | 448 kts | 158° |
| 2026-04-28 21:07 | 1.25838 | 12.42301 | 39007 ft | 448 kts | 158° |
| 2026-04-28 21:08 | 1.19866 | 12.44396 | 39006 ft | 447 kts | 158° |
| 2026-04-28 21:08 | 1.13852 | 12.46505 | 39002 ft | 448 kts | 158° |
| 2026-04-28 21:09 | 1.07866 | 12.48604 | 39005 ft | 448 kts | 158° |
| 2026-04-28 21:09 | 1.01815 | 12.50726 | 39003 ft | 448 kts | 158° |
| 2026-04-28 21:10 | 0.95529 | 12.52930 | 38999 ft | 448 kts | 158° |
| 2026-04-28 21:10 | 0.89477 | 12.55052 | 39000 ft | 448 kts | 158° |
| 2026-04-28 21:11 | 0.83396 | 12.57184 | 38998 ft | 448 kts | 158° |
| 2026-04-28 21:11 | 0.77418 | 12.59281 | 38984 ft | 448 kts | 158° |
| 2026-04-28 21:12 | 0.71439 | 12.61377 | 38980 ft | 448 kts | 158° |
| 2026-04-28 21:12 | 0.65471 | 12.63469 | 38969 ft | 448 kts | 158° |
| 2026-04-28 21:13 | 0.59480 | 12.65569 | 38968 ft | 448 kts | 158° |
| 2026-04-28 21:13 | 0.53507 | 12.67664 | 38961 ft | 448 kts | 158° |
| 2026-04-28 21:14 | 0.47503 | 12.69766 | 38959 ft | 448 kts | 158° |
| 2026-04-28 21:14 | 0.41474 | 12.71880 | 38959 ft | 448 kts | 158° |
| 2026-04-28 21:15 | 0.35433 | 12.73998 | 38961 ft | 448 kts | 158° |
| 2026-04-28 21:15 | 0.29402 | 12.76112 | 38960 ft | 448 kts | 158° |
| 2026-04-28 21:16 | 0.23408 | 12.78213 | 38969 ft | 448 kts | 158° |
| 2026-04-28 21:16 | 0.17367 | 12.80331 | 38971 ft | 448 kts | 158° |
| 2026-04-28 21:17 | 0.11393 | 12.82425 | 38969 ft | 448 kts | 158° |
| 2026-04-28 21:17 | 0.05399 | 12.84527 | 38968 ft | 448 kts | 158° |
| 2026-04-28 21:18 | -0.00573 | 12.86620 | 38970 ft | 448 kts | 159° |
| 2026-04-28 21:18 | -0.06570 | 12.88722 | 38967 ft | 448 kts | 158° |
| 2026-04-28 21:19 | -0.12549 | 12.90819 | 38964 ft | 448 kts | 158° |
| 2026-04-28 21:19 | -0.18583 | 12.92934 | 38959 ft | 448 kts | 158° |
| 2026-04-28 21:20 | -0.24567 | 12.95032 | 38959 ft | 448 kts | 158° |
| 2026-04-28 21:20 | -0.30582 | 12.97141 | 38965 ft | 448 kts | 158° |
| 2026-04-28 21:21 | -0.36540 | 12.99229 | 38972 ft | 448 kts | 158° |
| 2026-04-28 21:21 | -0.42531 | 13.01330 | 38969 ft | 448 kts | 158° |
| 2026-04-28 21:22 | -0.48488 | 13.03418 | 38972 ft | 448 kts | 158° |
| 2026-04-28 21:22 | -0.54459 | 13.05511 | 38971 ft | 448 kts | 159° |
| 2026-04-28 21:23 | -0.60430 | 13.07605 | 38969 ft | 448 kts | 159° |
| 2026-04-28 21:23 | -0.66444 | 13.09713 | 38970 ft | 448 kts | 159° |
| 2026-04-28 21:24 | -0.72411 | 13.11805 | 38966 ft | 448 kts | 159° |
| 2026-04-28 21:24 | -0.78404 | 13.13907 | 38959 ft | 448 kts | 159° |
| 2026-04-28 21:25 | -0.84469 | 13.16033 | 38960 ft | 449 kts | 159° |
| 2026-04-28 21:25 | -0.90772 | 13.18243 | 38956 ft | 449 kts | 159° |
| 2026-04-28 21:26 | -0.96979 | 13.20420 | 38951 ft | 449 kts | 159° |
| 2026-04-28 21:26 | -1.03274 | 13.22627 | 38951 ft | 449 kts | 159° |
| 2026-04-28 21:27 | -1.09502 | 13.24811 | 38952 ft | 449 kts | 159° |
| 2026-04-28 21:27 | -1.15746 | 13.27001 | 38950 ft | 449 kts | 159° |
| 2026-04-28 21:28 | -1.21932 | 13.29170 | 38957 ft | 450 kts | 159° |
| 2026-04-28 21:28 | -1.28249 | 13.31386 | 38956 ft | 450 kts | 159° |
| 2026-04-28 21:29 | -1.34541 | 13.33592 | 38957 ft | 450 kts | 159° |
| 2026-04-28 21:29 | -1.40913 | 13.35827 | 38961 ft | 450 kts | 159° |
| 2026-04-28 21:30 | -1.46297 | 13.37716 | 38956 ft | 450 kts | 159° |
| 2026-04-28 21:30 | -1.52108 | 13.39755 | 38963 ft | 450 kts | 159° |
| 2026-04-28 21:31 | -1.58090 | 13.41853 | 38964 ft | 451 kts | 159° |
| 2026-04-28 21:31 | -1.64061 | 13.43993 | 38966 ft | 450 kts | 155° |
| 2026-04-28 21:32 | -1.69423 | 13.47232 | 38979 ft | 447 kts | 142° |
| 2026-04-28 21:32 | -1.74722 | 13.50970 | 38971 ft | 447 kts | 143° |
| 2026-04-28 21:33 | -1.79904 | 13.54601 | 38975 ft | 447 kts | 143° |
| 2026-04-28 21:33 | -1.85090 | 13.58233 | 38979 ft | 448 kts | 143° |
| 2026-04-28 21:34 | -1.90279 | 13.61867 | 38981 ft | 448 kts | 143° |
| 2026-04-28 21:34 | -1.95471 | 13.65503 | 38988 ft | 448 kts | 143° |
| 2026-04-28 21:35 | -2.00786 | 13.69227 | 38995 ft | 449 kts | 143° |
| 2026-04-28 21:35 | -2.06234 | 13.73043 | 38999 ft | 449 kts | 143° |
| 2026-04-28 21:36 | -2.11553 | 13.76769 | 38998 ft | 449 kts | 143° |
| 2026-04-28 21:36 | -2.16926 | 13.80536 | 39002 ft | 449 kts | 143° |
| 2026-04-28 21:37 | -2.22207 | 13.84239 | 38991 ft | 450 kts | 143° |
| 2026-04-28 21:37 | -2.27430 | 13.87859 | 38991 ft | 450 kts | 143° |
| 2026-04-28 21:38 | -2.32701 | 13.91500 | 38995 ft | 450 kts | 144° |
| 2026-04-28 21:38 | -2.37934 | 13.95114 | 39002 ft | 451 kts | 143° |
| 2026-04-28 21:39 | -2.43183 | 13.98740 | 39004 ft | 451 kts | 144° |
| 2026-04-28 21:39 | -2.48410 | 14.02351 | 39004 ft | 451 kts | 143° |
| 2026-04-28 21:40 | -2.53803 | 14.06078 | 39008 ft | 452 kts | 144° |
| 2026-04-28 21:40 | -2.59087 | 14.09729 | 39002 ft | 452 kts | 144° |
| 2026-04-28 21:41 | -2.64536 | 14.13494 | 38997 ft | 452 kts | 144° |
| 2026-04-28 21:41 | -2.69986 | 14.17262 | 38994 ft | 453 kts | 143° |
| 2026-04-28 21:42 | -2.75522 | 14.21088 | 38997 ft | 453 kts | 144° |
| 2026-04-28 21:42 | -2.80997 | 14.24873 | 38995 ft | 453 kts | 144° |
| 2026-04-28 21:43 | -2.86571 | 14.28727 | 39001 ft | 454 kts | 144° |
| 2026-04-28 21:43 | -2.92069 | 14.32529 | 38997 ft | 454 kts | 144° |
| 2026-04-28 21:44 | -2.97643 | 14.36384 | 38996 ft | 455 kts | 144° |
| 2026-04-28 21:44 | -3.03099 | 14.40157 | 38998 ft | 455 kts | 144° |
| 2026-04-28 21:45 | -3.08578 | 14.43947 | 39000 ft | 455 kts | 144° |
| 2026-04-28 21:45 | -3.13798 | 14.47558 | 38999 ft | 455 kts | 144° |
| 2026-04-28 21:46 | -3.19052 | 14.51193 | 38999 ft | 455 kts | 144° |
| 2026-04-28 21:46 | -3.24295 | 14.54822 | 39001 ft | 455 kts | 144° |
| 2026-04-28 21:47 | -3.29520 | 14.58438 | 38998 ft | 455 kts | 144° |
| 2026-04-28 21:47 | -3.34744 | 14.62054 | 38999 ft | 455 kts | 144° |
| 2026-04-28 21:48 | -3.40006 | 14.65696 | 39002 ft | 455 kts | 144° |
| 2026-04-28 21:48 | -3.42682 | 14.67549 | 38995 ft | 443 kts | 144° |
| 2026-04-28 21:48 | -3.45293 | 14.69356 | 38985 ft | 418 kts | 144° |
| 2026-04-28 21:49 | -3.47748 | 14.71056 | 38975 ft | 396 kts | 143° |
| 2026-04-28 21:49 | -3.50061 | 14.72658 | 38926 ft | 377 kts | 144° |
| 2026-04-28 21:49 | -3.52315 | 14.74219 | 38230 ft | 374 kts | 143° |
| 2026-04-28 21:49 | -3.54479 | 14.75718 | 37617 ft | 370 kts | 143° |
| 2026-04-28 21:50 | -3.56620 | 14.77200 | 37003 ft | 366 kts | 143° |
| 2026-04-28 21:50 | -3.58738 | 14.78668 | 36397 ft | 362 kts | 143° |
| 2026-04-28 21:50 | -3.60864 | 14.80140 | 35782 ft | 359 kts | 143° |
| 2026-04-28 21:50 | -3.63032 | 14.81642 | 34968 ft | 361 kts | 143° |
| 2026-04-28 21:51 | -3.65269 | 14.83193 | 33265 ft | 384 kts | 142° |
| 2026-04-28 21:51 | -3.67515 | 14.84749 | 32115 ft | 392 kts | 142° |
| 2026-04-28 21:51 | -3.69869 | 14.86380 | 30733 ft | 406 kts | 142° |
| 2026-04-28 21:51 | -3.72333 | 14.88088 | 28871 ft | 428 kts | 142° |
| 2026-04-28 21:52 | -3.74912 | 14.89875 | 27334 ft | 437 kts | 142° |
| 2026-04-28 21:52 | -3.77428 | 14.91618 | 26013 ft | 440 kts | 143° |
| 2026-04-28 21:52 | -3.80004 | 14.93404 | 24370 ft | 449 kts | 143° |
| 2026-04-28 21:52 | -3.82662 | 14.95245 | 22961 ft | 450 kts | 143° |
| 2026-04-28 21:53 | -3.85243 | 14.97034 | 21987 ft | 441 kts | 144° |
| 2026-04-28 21:53 | -3.87739 | 14.98764 | 21202 ft | 429 kts | 144° |
| 2026-04-28 21:53 | -3.90170 | 15.00449 | 20451 ft | 418 kts | 144° |
| 2026-04-28 21:53 | -3.92533 | 15.02087 | 19737 ft | 407 kts | 144° |
| 2026-04-28 21:54 | -3.94886 | 15.03719 | 19012 ft | 397 kts | 144° |
| 2026-04-28 21:54 | -3.97160 | 15.05296 | 18324 ft | 388 kts | 144° |
| 2026-04-28 21:54 | -3.99361 | 15.06822 | 17645 ft | 380 kts | 144° |
| 2026-04-28 21:54 | -4.01554 | 15.08343 | 16957 ft | 372 kts | 144° |
| 2026-04-28 21:55 | -4.03704 | 15.09834 | 16283 ft | 365 kts | 144° |
| 2026-04-28 21:55 | -4.05769 | 15.11269 | 15671 ft | 358 kts | 144° |
| 2026-04-28 21:55 | -4.07861 | 15.12722 | 15067 ft | 350 kts | 144° |
| 2026-04-28 21:55 | -4.09865 | 15.14112 | 14461 ft | 344 kts | 144° |
| 2026-04-28 21:56 | -4.11829 | 15.15475 | 13889 ft | 338 kts | 144° |
| 2026-04-28 21:56 | -4.13724 | 15.16789 | 13386 ft | 331 kts | 144° |
| 2026-04-28 21:56 | -4.15571 | 15.18070 | 12942 ft | 323 kts | 144° |
| 2026-04-28 21:56 | -4.17379 | 15.19325 | 12494 ft | 317 kts | 144° |
| 2026-04-28 21:57 | -4.19168 | 15.20566 | 12041 ft | 311 kts | 144° |
| 2026-04-28 21:57 | -4.20926 | 15.21786 | 11589 ft | 307 kts | 144° |
| 2026-04-28 21:57 | -4.22645 | 15.22979 | 11142 ft | 303 kts | 144° |
| 2026-04-28 21:57 | -4.24236 | 15.24356 | 10695 ft | 297 kts | 125° |
| 2026-04-28 21:58 | -4.25053 | 15.26253 | 10320 ft | 287 kts | 98° |
| 2026-04-28 21:58 | -4.25131 | 15.28221 | 9975 ft | 281 kts | 89° |
| 2026-04-28 21:58 | -4.25142 | 15.30219 | 9605 ft | 277 kts | 89° |
| 2026-04-28 21:58 | -4.25144 | 15.32185 | 9234 ft | 274 kts | 89° |
| 2026-04-28 21:59 | -4.25144 | 15.34157 | 8860 ft | 271 kts | 89° |
| 2026-04-28 21:59 | -4.25144 | 15.36076 | 8488 ft | 268 kts | 89° |
| 2026-04-28 21:59 | -4.25143 | 15.38040 | 8106 ft | 266 kts | 89° |
| 2026-04-28 22:00 | -4.25143 | 15.41888 | 7349 ft | 262 kts | 89° |
| 2026-04-28 22:00 | -4.25142 | 15.43744 | 6980 ft | 261 kts | 89° |
| 2026-04-28 22:00 | -4.25142 | 15.45598 | 6608 ft | 259 kts | 89° |
| 2026-04-28 22:00 | -4.25141 | 15.47506 | 6223 ft | 258 kts | 89° |
| 2026-04-28 22:01 | -4.25141 | 15.49363 | 5851 ft | 256 kts | 88° |
| 2026-04-28 22:01 | -4.25140 | 15.51258 | 5460 ft | 255 kts | 89° |
| 2026-04-28 22:01 | -4.25139 | 15.53159 | 5069 ft | 253 kts | 89° |
| 2026-04-28 22:01 | -4.25138 | 15.55016 | 4680 ft | 251 kts | 88° |
| 2026-04-28 22:02 | -4.25138 | 15.56773 | 4265 ft | 236 kts | 88° |
| 2026-04-28 22:02 | -4.25201 | 15.58422 | 3908 ft | 228 kts | 101° |
| 2026-04-28 22:02 | -4.26003 | 15.59812 | 3596 ft | 236 kts | 136° |
| 2026-04-28 22:02 | -4.27551 | 15.60435 | 3526 ft | 219 kts | 178° |
| 2026-04-28 22:03 | -4.28971 | 15.59941 | 3537 ft | 201 kts | 223° |
| 2026-04-28 22:03 | -4.30011 | 15.58943 | 3523 ft | 187 kts | 208° |
| 2026-04-28 22:03 | -4.31348 | 15.58681 | 3565 ft | 173 kts | 163° |
| 2026-04-28 22:03 | -4.32480 | 15.59200 | 3516 ft | 165 kts | 145° |
| 2026-04-28 22:04 | -4.33572 | 15.59620 | 3470 ft | 169 kts | 182° |
| 2026-04-28 22:04 | -4.34591 | 15.58908 | 3425 ft | 173 kts | 247° |
| 2026-04-28 22:04 | -4.34541 | 15.57725 | 3378 ft | 164 kts | 305° |
| 2026-04-28 22:04 | -4.33728 | 15.56876 | 3384 ft | 158 kts | 318° |
| 2026-04-28 22:05 | -4.33112 | 15.55859 | 3380 ft | 166 kts | 286° |
| 2026-04-28 22:05 | -4.33317 | 15.54648 | 3366 ft | 175 kts | 238° |
| 2026-04-28 22:05 | -4.33903 | 15.53482 | 3263 ft | 183 kts | 265° |
| 2026-04-28 22:05 | -4.33905 | 15.53469 | 3260 ft | 184 kts | 265° |
| 2026-04-28 22:07 | -4.33908 | 15.53436 | 3253 ft | 184 kts | 267° |
| 2026-04-28 22:07 | -4.34037 | 15.52083 | 3073 ft | 197 kts | 249° |
| 2026-04-28 22:07 | -4.34955 | 15.50972 | 2929 ft | 204 kts | 221° |
| 2026-04-28 22:08 | -4.35689 | 15.49709 | 2653 ft | 215 kts | 258° |
| 2026-04-28 22:08 | -4.35744 | 15.48103 | 2033 ft | 218 kts | 264° |
| 2026-04-28 22:08 | -4.36380 | 15.46816 | 1364 ft | 194 kts | 224° |
| 2026-04-28 22:08 | -4.37412 | 15.46103 | 1060 ft | 162 kts | 216° |
| 2026-04-28 22:09 | -4.38017 | 15.45327 | 1010 ft | 129 kts | 238° |
| 2026-04-28 22:09 | -4.38333 | 15.44830 | 1016 ft | 44 kts | 239° |
| 2026-04-28 22:09 | -4.38507 | 15.44552 | 1014 ft | 44 kts | 237° |
| 2026-04-28 22:09 | -4.38649 | 15.44499 | 1019 ft | 19 kts | 150° |
| 2026-04-28 22:10 | -4.38737 | 15.44542 | 1022 ft | 11 kts | 190° |
| 2026-04-28 22:10 | -4.38781 | 15.44475 | 1023 ft | 13 kts | 238° |
| 2026-04-28 22:10 | -4.38837 | 15.44390 | 1024 ft | 17 kts | 236° |
| 2026-04-28 22:10 | -4.38898 | 15.44322 | 1025 ft | 11 kts | 221° |
| 2026-04-28 22:11 | -4.38970 | 15.44310 | 1028 ft | 8 kts | 142° |
| 2026-04-28 22:11 | -4.38983 | 15.44320 | 1029 ft | 0 kts | 144° |